CZEM/ZEM METAR and TAF weather

Enter ICAO airport designator
Station Type Date Time Source
CZEM METAR 2021/05/09 19:00 UTC NOAA

CZEM 091900Z 29011KT 15SM FEW050 SCT200 05/00 A3003 RMK SC1CI3 SC TR LAST STFD OBS/NEXT 101300 UTC SLP172


Station Type Date Time Source
CZEM Decoded METAR 2021/05/09 19:00 UTC NOAA

Eastmain River Airport, Canada (CZEM) 52-14N 078-31W
May 09, 2021 - 03:00 PM EDT / 2021.05.09 1900 UTC
Wind: from the WNW (290 degrees) at 13 MPH (11 KT):0
Visibility: 15 mile(s):0
Sky conditions: partly cloudy
Temperature: 41 F (5 C)
Dew Point: 32 F (0 C)
Relative Humidity: 70%
Pressure (altimeter): 30.03 in. Hg (1016 hPa)
ob: CZEM 091900Z 29011KT 15SM FEW050 SCT200 05/00 A3003 RMK SC1CI3 SC TR LAST STFD OBS/NEXT 101300 UTC SLP172
cycle: 19

Station Type Date Time Source
CZEM TAF UTC NOAA

Error!

Example: see airport list